sensor_id;sensor_type;location;lat;lon;timestamp;temperature;humidity
3705;DHT22;1868;48.918;9.438;2023-10-13T00:02:29;16.20;97.40
3705;DHT22;1868;48.918;9.438;2023-10-13T00:05:01;16.20;97.40
3705;DHT22;1868;48.918;9.438;2023-10-13T00:07:31;16.20;97.40
3705;DHT22;1868;48.918;9.438;2023-10-13T00:10:01;16.20;97.40
3705;DHT22;1868;48.918;9.438;2023-10-13T00:12:34;16.20;97.40
3705;DHT22;1868;48.918;9.438;2023-10-13T00:15:07;16.20;97.40
3705;DHT22;1868;48.918;9.438;2023-10-13T00:17:42;16.20;97.40
3705;DHT22;1868;48.918;9.438;2023-10-13T00:20:13;16.10;97.40
3705;DHT22;1868;48.918;9.438;2023-10-13T00:22:57;16.10;97.40
3705;DHT22;1868;48.918;9.438;2023-10-13T00:25:29;16.10;97.40
3705;DHT22;1868;48.918;9.438;2023-10-13T00:28:10;16.10;97.40
3705;DHT22;1868;48.918;9.438;2023-10-13T00:30:52;16.00;97.40
3705;DHT22;1868;48.918;9.438;2023-10-13T00:33:29;16.00;97.40
3705;DHT22;1868;48.918;9.438;2023-10-13T00:35:59;15.90;97.40
3705;DHT22;1868;48.918;9.438;2023-10-13T00:38:29;15.80;97.40
3705;DHT22;1868;48.918;9.438;2023-10-13T00:40:57;15.80;97.40
3705;DHT22;1868;48.918;9.438;2023-10-13T00:43:32;15.70;97.40
3705;DHT22;1868;48.918;9.438;2023-10-13T00:46:05;15.60;97.40
3705;DHT22;1868;48.918;9.438;2023-10-13T00:48:37;15.50;97.40
3705;DHT22;1868;48.918;9.438;2023-10-13T00:51:14;15.40;97.40
3705;DHT22;1868;48.918;9.438;2023-10-13T00:54:03;15.40;97.40
3705;DHT22;1868;48.918;9.438;2023-10-13T00:56:41;15.30;97.40
3705;DHT22;1868;48.918;9.438;2023-10-13T00:59:16;15.30;97.40
3705;DHT22;1868;48.918;9.438;2023-10-13T01:01:47;15.20;97.40
3705;DHT22;1868;48.918;9.438;2023-10-13T01:04:21;15.10;97.40
3705;DHT22;1868;48.918;9.438;2023-10-13T01:06:54;15.10;97.40
3705;DHT22;1868;48.918;9.438;2023-10-13T01:09:25;15.00;97.40
3705;DHT22;1868;48.918;9.438;2023-10-13T01:11:53;15.00;97.40
3705;DHT22;1868;48.918;9.438;2023-10-13T01:14:22;14.90;97.40
3705;DHT22;1868;48.918;9.438;2023-10-13T01:16:58;14.90;97.40
3705;DHT22;1868;48.918;9.438;2023-10-13T01:19:28;14.90;97.40
3705;DHT22;1868;48.918;9.438;2023-10-13T01:21:57;14.80;97.40
3705;DHT22;1868;48.918;9.438;2023-10-13T01:24:33;14.70;97.40
3705;DHT22;1868;48.918;9.438;2023-10-13T01:27:03;14.70;97.40
3705;DHT22;1868;48.918;9.438;2023-10-13T01:29:46;14.60;97.40
3705;DHT22;1868;48.918;9.438;2023-10-13T01:32:19;14.60;97.40
3705;DHT22;1868;48.918;9.438;2023-10-13T01:34:50;14.60;97.40
3705;DHT22;1868;48.918;9.438;2023-10-13T01:37:24;14.60;97.40
3705;DHT22;1868;48.918;9.438;2023-10-13T01:39:56;14.50;97.40
3705;DHT22;1868;48.918;9.438;2023-10-13T01:42:26;14.40;97.40
3705;DHT22;1868;48.918;9.438;2023-10-13T01:44:59;14.40;97.40
3705;DHT22;1868;48.918;9.438;2023-10-13T01:47:34;14.40;97.40
3705;DHT22;1868;48.918;9.438;2023-10-13T01:50:06;14.30;97.40
3705;DHT22;1868;48.918;9.438;2023-10-13T01:52:46;14.30;97.40
3705;DHT22;1868;48.918;9.438;2023-10-13T01:55:21;14.20;97.40
3705;DHT22;1868;48.918;9.438;2023-10-13T01:57:51;14.20;97.40
3705;DHT22;1868;48.918;9.438;2023-10-13T02:00:22;14.20;97.40
3705;DHT22;1868;48.918;9.438;2023-10-13T02:02:52;14.10;97.40
3705;DHT22;1868;48.918;9.438;2023-10-13T02:05:21;14.10;97.40
3705;DHT22;1868;48.918;9.438;2023-10-13T02:07:55;14.00;97.40
3705;DHT22;1868;48.918;9.438;2023-10-13T02:10:30;14.00;97.40
3705;DHT22;1868;48.918;9.438;2023-10-13T02:13:00;14.00;97.40
3705;DHT22;1868;48.918;9.438;2023-10-13T02:15:31;13.90;97.40
3705;DHT22;1868;48.918;9.438;2023-10-13T02:18:04;13.90;97.40
3705;DHT22;1868;48.918;9.438;2023-10-13T02:20:33;13.80;97.40
3705;DHT22;1868;48.918;9.438;2023-10-13T02:23:10;13.80;97.40
3705;DHT22;1868;48.918;9.438;2023-10-13T02:25:40;13.80;97.40
3705;DHT22;1868;48.918;9.438;2023-10-13T02:28:13;13.70;97.40
3705;DHT22;1868;48.918;9.438;2023-10-13T02:30:43;13.70;97.40
3705;DHT22;1868;48.918;9.438;2023-10-13T02:33:17;13.70;97.40
3705;DHT22;1868;48.918;9.438;2023-10-13T02:35:48;13.70;97.40
3705;DHT22;1868;48.918;9.438;2023-10-13T02:38:21;13.60;97.40
3705;DHT22;1868;48.918;9.438;2023-10-13T02:41:03;13.60;97.40
3705;DHT22;1868;48.918;9.438;2023-10-13T02:43:34;13.50;97.40
3705;DHT22;1868;48.918;9.438;2023-10-13T02:46:06;13.50;97.40
3705;DHT22;1868;48.918;9.438;2023-10-13T02:48:35;13.30;97.40
3705;DHT22;1868;48.918;9.438;2023-10-13T02:51:09;13.30;97.40
3705;DHT22;1868;48.918;9.438;2023-10-13T02:53:45;13.20;97.40
3705;DHT22;1868;48.918;9.438;2023-10-13T02:56:17;13.20;97.40
3705;DHT22;1868;48.918;9.438;2023-10-13T02:58:49;13.10;97.40
3705;DHT22;1868;48.918;9.438;2023-10-13T03:01:20;13.10;97.40
3705;DHT22;1868;48.918;9.438;2023-10-13T03:03:59;13.10;97.40
3705;DHT22;1868;48.918;9.438;2023-10-13T03:06:28;13.10;97.40
3705;DHT22;1868;48.918;9.438;2023-10-13T03:09:02;13.00;97.40
3705;DHT22;1868;48.918;9.438;2023-10-13T03:11:44;13.00;97.40
3705;DHT22;1868;48.918;9.438;2023-10-13T03:14:22;13.00;97.40
3705;DHT22;1868;48.918;9.438;2023-10-13T03:16:57;13.00;97.40
3705;DHT22;1868;48.918;9.438;2023-10-13T03:19:33;12.90;97.40
3705;DHT22;1868;48.918;9.438;2023-10-13T03:22:10;12.90;97.40
3705;DHT22;1868;48.918;9.438;2023-10-13T03:24:44;12.90;97.40
3705;DHT22;1868;48.918;9.438;2023-10-13T03:27:19;12.80;97.40
3705;DHT22;1868;48.918;9.438;2023-10-13T03:29:51;12.80;97.40
3705;DHT22;1868;48.918;9.438;2023-10-13T03:32:24;12.80;97.40
3705;DHT22;1868;48.918;9.438;2023-10-13T03:34:56;12.80;97.40
3705;DHT22;1868;48.918;9.438;2023-10-13T03:37:38;12.70;97.40
3705;DHT22;1868;48.918;9.438;2023-10-13T03:40:11;12.70;97.40
3705;DHT22;1868;48.918;9.438;2023-10-13T03:43:05;12.70;97.40
3705;DHT22;1868;48.918;9.438;2023-10-13T03:45:40;12.70;97.40
3705;DHT22;1868;48.918;9.438;2023-10-13T03:48:12;12.60;97.40
3705;DHT22;1868;48.918;9.438;2023-10-13T03:50:58;12.60;97.40
3705;DHT22;1868;48.918;9.438;2023-10-13T03:53:37;12.50;97.40
3705;DHT22;1868;48.918;9.438;2023-10-13T03:56:22;12.50;97.40
3705;DHT22;1868;48.918;9.438;2023-10-13T03:59:01;12.50;97.40
3705;DHT22;1868;48.918;9.438;2023-10-13T04:01:34;12.50;97.40
3705;DHT22;1868;48.918;9.438;2023-10-13T04:04:13;12.50;97.40
3705;DHT22;1868;48.918;9.438;2023-10-13T04:07:02;12.40;97.40
3705;DHT22;1868;48.918;9.438;2023-10-13T04:10:08;12.30;97.40
3705;DHT22;1868;48.918;9.438;2023-10-13T04:12:51;12.30;97.40
3705;DHT22;1868;48.918;9.438;2023-10-13T04:15:55;12.30;97.40
3705;DHT22;1868;48.918;9.438;2023-10-13T04:18:42;12.30;97.40
3705;DHT22;1868;48.918;9.438;2023-10-13T04:21:35;12.30;97.40
3705;DHT22;1868;48.918;9.438;2023-10-13T04:24:23;12.30;97.40
3705;DHT22;1868;48.918;9.438;2023-10-13T04:27:06;12.20;97.40
3705;DHT22;1868;48.918;9.438;2023-10-13T04:29:59;12.20;97.40
3705;DHT22;1868;48.918;9.438;2023-10-13T04:32:41;12.10;97.40
3705;DHT22;1868;48.918;9.438;2023-10-13T04:35:17;12.10;97.40
3705;DHT22;1868;48.918;9.438;2023-10-13T04:37:46;12.10;97.40
3705;DHT22;1868;48.918;9.438;2023-10-13T04:40:24;12.10;97.40
3705;DHT22;1868;48.918;9.438;2023-10-13T04:42:53;12.00;97.40
3705;DHT22;1868;48.918;9.438;2023-10-13T04:45:25;12.10;97.40
3705;DHT22;1868;48.918;9.438;2023-10-13T04:48:18;12.10;97.40
3705;DHT22;1868;48.918;9.438;2023-10-13T04:51:00;12.10;97.40
3705;DHT22;1868;48.918;9.438;2023-10-13T04:53:45;12.10;97.40
3705;DHT22;1868;48.918;9.438;2023-10-13T04:56:38;12.10;97.40
3705;DHT22;1868;48.918;9.438;2023-10-13T04:59:29;12.10;97.40
3705;DHT22;1868;48.918;9.438;2023-10-13T05:02:06;12.10;97.40
3705;DHT22;1868;48.918;9.438;2023-10-13T05:04:55;12.10;97.40
3705;DHT22;1868;48.918;9.438;2023-10-13T05:07:50;12.10;97.40
3705;DHT22;1868;48.918;9.438;2023-10-13T05:10:38;12.10;97.40
3705;DHT22;1868;48.918;9.438;2023-10-13T05:13:24;12.10;97.40
3705;DHT22;1868;48.918;9.438;2023-10-13T05:16:10;12.00;97.40
3705;DHT22;1868;48.918;9.438;2023-10-13T05:18:57;12.00;97.40
3705;DHT22;1868;48.918;9.438;2023-10-13T05:21:45;11.90;97.40
3705;DHT22;1868;48.918;9.438;2023-10-13T05:24:32;11.90;97.40
3705;DHT22;1868;48.918;9.438;2023-10-13T05:27:19;11.90;97.40
3705;DHT22;1868;48.918;9.438;2023-10-13T05:30:07;11.90;97.40
3705;DHT22;1868;48.918;9.438;2023-10-13T05:32:54;11.90;97.40
3705;DHT22;1868;48.918;9.438;2023-10-13T05:35:40;11.90;97.40
3705;DHT22;1868;48.918;9.438;2023-10-13T05:38:32;11.90;97.40
3705;DHT22;1868;48.918;9.438;2023-10-13T05:41:28;11.90;97.40
3705;DHT22;1868;48.918;9.438;2023-10-13T05:44:14;11.90;97.40
3705;DHT22;1868;48.918;9.438;2023-10-13T05:47:05;11.90;97.40
3705;DHT22;1868;48.918;9.438;2023-10-13T05:49:52;11.90;97.40
3705;DHT22;1868;48.918;9.438;2023-10-13T05:52:32;11.90;97.40
3705;DHT22;1868;48.918;9.438;2023-10-13T05:55:19;11.90;97.40
3705;DHT22;1868;48.918;9.438;2023-10-13T05:58:08;11.90;97.40
3705;DHT22;1868;48.918;9.438;2023-10-13T06:00:55;11.90;97.40
3705;DHT22;1868;48.918;9.438;2023-10-13T06:03:42;12.00;97.40
3705;DHT22;1868;48.918;9.438;2023-10-13T06:06:29;12.00;97.40
3705;DHT22;1868;48.918;9.438;2023-10-13T06:09:15;12.00;97.40
3705;DHT22;1868;48.918;9.438;2023-10-13T06:12:04;12.10;97.40
3705;DHT22;1868;48.918;9.438;2023-10-13T06:14:53;12.20;97.40
3705;DHT22;1868;48.918;9.438;2023-10-13T06:17:39;12.30;97.40
3705;DHT22;1868;48.918;9.438;2023-10-13T06:20:26;12.40;97.40
3705;DHT22;1868;48.918;9.438;2023-10-13T06:23:14;12.50;97.40
3705;DHT22;1868;48.918;9.438;2023-10-13T06:26:01;12.70;97.40
3705;DHT22;1868;48.918;9.438;2023-10-13T06:28:48;12.70;97.40
3705;DHT22;1868;48.918;9.438;2023-10-13T06:31:18;12.80;97.40
3705;DHT22;1868;48.918;9.438;2023-10-13T06:33:53;12.90;97.40
3705;DHT22;1868;48.918;9.438;2023-10-13T06:36:25;13.00;97.40
3705;DHT22;1868;48.918;9.438;2023-10-13T06:38:54;13.30;97.40
3705;DHT22;1868;48.918;9.438;2023-10-13T06:41:43;13.60;97.40
3705;DHT22;1868;48.918;9.438;2023-10-13T06:44:16;13.90;97.40
3705;DHT22;1868;48.918;9.438;2023-10-13T06:46:45;14.20;97.40
3705;DHT22;1868;48.918;9.438;2023-10-13T06:49:19;14.60;97.40
3705;DHT22;1868;48.918;9.438;2023-10-13T06:51:50;15.00;97.40
3705;DHT22;1868;48.918;9.438;2023-10-13T06:54:27;15.40;97.40
3705;DHT22;1868;48.918;9.438;2023-10-13T06:56:56;15.70;97.40
3705;DHT22;1868;48.918;9.438;2023-10-13T06:59:26;15.70;97.40
3705;DHT22;1868;48.918;9.438;2023-10-13T07:01:59;15.80;97.40
3705;DHT22;1868;48.918;9.438;2023-10-13T07:04:52;16.20;97.40
3705;DHT22;1868;48.918;9.438;2023-10-13T07:07:25;16.70;97.40
3705;DHT22;1868;48.918;9.438;2023-10-13T07:09:53;17.00;97.40
3705;DHT22;1868;48.918;9.438;2023-10-13T07:12:25;17.20;97.40
3705;DHT22;1868;48.918;9.438;2023-10-13T07:14:56;17.20;97.40
3705;DHT22;1868;48.918;9.438;2023-10-13T07:17:38;17.00;97.40
3705;DHT22;1868;48.918;9.438;2023-10-13T07:20:09;17.30;97.40
3705;DHT22;1868;48.918;9.438;2023-10-13T07:22:50;17.70;97.40
3705;DHT22;1868;48.918;9.438;2023-10-13T07:25:30;18.20;97.40
3705;DHT22;1868;48.918;9.438;2023-10-13T07:28:04;18.90;97.40
3705;DHT22;1868;48.918;9.438;2023-10-13T07:30:39;19.30;97.40
3705;DHT22;1868;48.918;9.438;2023-10-13T07:33:16;19.80;97.40
3705;DHT22;1868;48.918;9.438;2023-10-13T07:36:00;20.40;97.40
3705;DHT22;1868;48.918;9.438;2023-10-13T07:38:37;20.80;97.40
3705;DHT22;1868;48.918;9.438;2023-10-13T07:41:09;20.90;97.40
3705;DHT22;1868;48.918;9.438;2023-10-13T07:43:43;20.90;97.40
3705;DHT22;1868;48.918;9.438;2023-10-13T07:46:16;21.30;97.40
3705;DHT22;1868;48.918;9.438;2023-10-13T07:48:50;21.80;97.40
3705;DHT22;1868;48.918;9.438;2023-10-13T07:51:21;22.10;97.40
3705;DHT22;1868;48.918;9.438;2023-10-13T07:53:52;22.50;97.40
3705;DHT22;1868;48.918;9.438;2023-10-13T07:56:21;23.10;97.40
3705;DHT22;1868;48.918;9.438;2023-10-13T07:58:51;23.70;97.40
3705;DHT22;1868;48.918;9.438;2023-10-13T08:01:34;24.40;97.40
3705;DHT22;1868;48.918;9.438;2023-10-13T08:04:03;24.50;97.40
3705;DHT22;1868;48.918;9.438;2023-10-13T08:06:44;25.00;97.40
3705;DHT22;1868;48.918;9.438;2023-10-13T08:09:13;25.00;97.40
3705;DHT22;1868;48.918;9.438;2023-10-13T08:12:08;25.20;97.40
3705;DHT22;1868;48.918;9.438;2023-10-13T08:14:39;26.00;97.40
3705;DHT22;1868;48.918;9.438;2023-10-13T08:17:08;26.00;97.40
3705;DHT22;1868;48.918;9.438;2023-10-13T08:19:38;26.20;97.40
3705;DHT22;1868;48.918;9.438;2023-10-13T08:22:13;26.80;97.40
3705;DHT22;1868;48.918;9.438;2023-10-13T08:25:05;27.20;97.40
3705;DHT22;1868;48.918;9.438;2023-10-13T08:27:49;27.70;94.30
3705;DHT22;1868;48.918;9.438;2023-10-13T08:30:24;28.40;94.20
3705;DHT22;1868;48.918;9.438;2023-10-13T08:32:57;28.90;91.00
3705;DHT22;1868;48.918;9.438;2023-10-13T08:35:31;29.00;92.00
3705;DHT22;1868;48.918;9.438;2023-10-13T08:38:03;29.10;90.20
3705;DHT22;1868;48.918;9.438;2023-10-13T08:40:59;29.50;84.50
3705;DHT22;1868;48.918;9.438;2023-10-13T08:44:01;30.00;84.30
3705;DHT22;1868;48.918;9.438;2023-10-13T08:46:38;29.60;79.50
3705;DHT22;1868;48.918;9.438;2023-10-13T08:49:28;29.20;67.60
3705;DHT22;1868;48.918;9.438;2023-10-13T08:52:00;29.40;68.70
3705;DHT22;1868;48.918;9.438;2023-10-13T08:54:56;30.00;64.00
3705;DHT22;1868;48.918;9.438;2023-10-13T08:58:02;30.10;64.60
3705;DHT22;1868;48.918;9.438;2023-10-13T09:00:42;31.20;62.20
3705;DHT22;1868;48.918;9.438;2023-10-13T09:03:40;31.70;64.60
3705;DHT22;1868;48.918;9.438;2023-10-13T09:06:14;31.90;55.80
3705;DHT22;1868;48.918;9.438;2023-10-13T09:08:46;31.80;55.50
3705;DHT22;1868;48.918;9.438;2023-10-13T09:11:33;31.60;58.70
3705;DHT22;1868;48.918;9.438;2023-10-13T09:14:16;32.10;61.60
3705;DHT22;1868;48.918;9.438;2023-10-13T09:17:05;32.30;58.00
3705;DHT22;1868;48.918;9.438;2023-10-13T09:20:04;31.40;54.20
3705;DHT22;1868;48.918;9.438;2023-10-13T09:22:53;32.00;54.90
3705;DHT22;1868;48.918;9.438;2023-10-13T09:25:36;31.80;47.30
3705;DHT22;1868;48.918;9.438;2023-10-13T09:28:11;31.80;52.20
3705;DHT22;1868;48.918;9.438;2023-10-13T09:30:45;31.90;48.20
3705;DHT22;1868;48.918;9.438;2023-10-13T09:33:22;30.80;49.90
3705;DHT22;1868;48.918;9.438;2023-10-13T09:36:02;29.50;51.60
3705;DHT22;1868;48.918;9.438;2023-10-13T09:38:33;30.20;52.60
3705;DHT22;1868;48.918;9.438;2023-10-13T09:41:04;31.20;50.00
3705;DHT22;1868;48.918;9.438;2023-10-13T09:43:46;30.90;49.40
3705;DHT22;1868;48.918;9.438;2023-10-13T09:46:19;30.60;47.80
3705;DHT22;1868;48.918;9.438;2023-10-13T09:48:58;30.30;49.90
3705;DHT22;1868;48.918;9.438;2023-10-13T09:51:35;29.60;51.30
3705;DHT22;1868;48.918;9.438;2023-10-13T09:54:08;30.10;50.70
3705;DHT22;1868;48.918;9.438;2023-10-13T09:56:47;30.50;51.00
3705;DHT22;1868;48.918;9.438;2023-10-13T09:59:22;30.40;50.20
3705;DHT22;1868;48.918;9.438;2023-10-13T10:01:52;30.90;49.60
3705;DHT22;1868;48.918;9.438;2023-10-13T10:04:30;31.10;48.80
3705;DHT22;1868;48.918;9.438;2023-10-13T10:07:05;30.70;49.60
3705;DHT22;1868;48.918;9.438;2023-10-13T10:09:35;30.40;50.50
3705;DHT22;1868;48.918;9.438;2023-10-13T10:12:25;30.90;51.10
3705;DHT22;1868;48.918;9.438;2023-10-13T10:15:07;31.40;49.70
3705;DHT22;1868;48.918;9.438;2023-10-13T10:17:42;31.90;49.90
3705;DHT22;1868;48.918;9.438;2023-10-13T10:20:14;31.90;46.70
3705;DHT22;1868;48.918;9.438;2023-10-13T10:23:00;32.00;47.90
3705;DHT22;1868;48.918;9.438;2023-10-13T10:25:30;32.80;47.50
3705;DHT22;1868;48.918;9.438;2023-10-13T10:28:06;33.30;47.80
3705;DHT22;1868;48.918;9.438;2023-10-13T10:30:36;33.30;44.30
3705;DHT22;1868;48.918;9.438;2023-10-13T10:33:06;33.50;45.20
3705;DHT22;1868;48.918;9.438;2023-10-13T10:35:41;33.70;44.00
3705;DHT22;1868;48.918;9.438;2023-10-13T10:38:13;33.40;43.50
3705;DHT22;1868;48.918;9.438;2023-10-13T10:40:52;31.90;47.20
3705;DHT22;1868;48.918;9.438;2023-10-13T10:43:29;32.40;47.30
3705;DHT22;1868;48.918;9.438;2023-10-13T10:46:10;32.20;45.80
3705;DHT22;1868;48.918;9.438;2023-10-13T10:48:44;31.40;47.80
3705;DHT22;1868;48.918;9.438;2023-10-13T10:51:15;30.70;49.30
3705;DHT22;1868;48.918;9.438;2023-10-13T10:53:49;30.30;51.30
3705;DHT22;1868;48.918;9.438;2023-10-13T10:56:23;30.10;53.40
3705;DHT22;1868;48.918;9.438;2023-10-13T10:59:05;29.70;52.50
3705;DHT22;1868;48.918;9.438;2023-10-13T11:01:43;29.60;53.10
3705;DHT22;1868;48.918;9.438;2023-10-13T11:04:18;29.20;52.90
3705;DHT22;1868;48.918;9.438;2023-10-13T11:06:55;28.70;54.50
3705;DHT22;1868;48.918;9.438;2023-10-13T11:09:26;28.70;56.10
3705;DHT22;1868;48.918;9.438;2023-10-13T11:12:13;29.10;55.70
3705;DHT22;1868;48.918;9.438;2023-10-13T11:15:04;30.00;52.50
3705;DHT22;1868;48.918;9.438;2023-10-13T11:17:40;30.10;54.00
3705;DHT22;1868;48.918;9.438;2023-10-13T11:20:19;30.10;53.10
3705;DHT22;1868;48.918;9.438;2023-10-13T11:23:10;30.20;52.00
3705;DHT22;1868;48.918;9.438;2023-10-13T11:25:42;30.50;52.90
3705;DHT22;1868;48.918;9.438;2023-10-13T11:28:13;30.30;50.80
3705;DHT22;1868;48.918;9.438;2023-10-13T11:30:47;30.10;51.70
3705;DHT22;1868;48.918;9.438;2023-10-13T11:33:19;30.00;52.80
3705;DHT22;1868;48.918;9.438;2023-10-13T11:35:51;30.60;52.30
3705;DHT22;1868;48.918;9.438;2023-10-13T11:38:37;31.10;50.80
3705;DHT22;1868;48.918;9.438;2023-10-13T11:41:20;32.20;48.10
3705;DHT22;1868;48.918;9.438;2023-10-13T11:43:50;32.20;46.80
3705;DHT22;1868;48.918;9.438;2023-10-13T11:46:36;33.00;46.80
3705;DHT22;1868;48.918;9.438;2023-10-13T11:49:34;34.10;45.50
3705;DHT22;1868;48.918;9.438;2023-10-13T11:52:05;34.10;42.30
3705;DHT22;1868;48.918;9.438;2023-10-13T11:54:48;34.50;42.10
3705;DHT22;1868;48.918;9.438;2023-10-13T11:57:17;35.00;40.30
3705;DHT22;1868;48.918;9.438;2023-10-13T11:59:48;34.90;40.90
3705;DHT22;1868;48.918;9.438;2023-10-13T12:02:52;35.20;40.60
3705;DHT22;1868;48.918;9.438;2023-10-13T12:05:39;34.80;39.50
3705;DHT22;1868;48.918;9.438;2023-10-13T12:08:33;34.90;39.20
3705;DHT22;1868;48.918;9.438;2023-10-13T12:11:07;35.30;38.90
3705;DHT22;1868;48.918;9.438;2023-10-13T12:13:51;35.70;37.90
3705;DHT22;1868;48.918;9.438;2023-10-13T12:16:21;35.60;37.30
3705;DHT22;1868;48.918;9.438;2023-10-13T12:18:50;35.60;37.30
3705;DHT22;1868;48.918;9.438;2023-10-13T12:21:20;35.90;37.10
3705;DHT22;1868;48.918;9.438;2023-10-13T12:23:49;36.10;36.50
3705;DHT22;1868;48.918;9.438;2023-10-13T12:26:23;36.00;36.80
3705;DHT22;1868;48.918;9.438;2023-10-13T12:28:59;36.10;37.10
3705;DHT22;1868;48.918;9.438;2023-10-13T12:31:34;35.50;35.40
3705;DHT22;1868;48.918;9.438;2023-10-13T12:34:06;35.60;36.60
3705;DHT22;1868;48.918;9.438;2023-10-13T12:36:46;36.00;36.60
3705;DHT22;1868;48.918;9.438;2023-10-13T12:39:34;35.20;37.30
3705;DHT22;1868;48.918;9.438;2023-10-13T12:42:21;35.30;35.90
3705;DHT22;1868;48.918;9.438;2023-10-13T12:45:09;35.50;36.30
3705;DHT22;1868;48.918;9.438;2023-10-13T12:47:55;35.60;35.70
3705;DHT22;1868;48.918;9.438;2023-10-13T12:51:00;35.90;36.00
3705;DHT22;1868;48.918;9.438;2023-10-13T12:53:47;35.70;35.60
3705;DHT22;1868;48.918;9.438;2023-10-13T12:56:17;35.80;36.20
3705;DHT22;1868;48.918;9.438;2023-10-13T12:58:56;34.80;35.60
3705;DHT22;1868;48.918;9.438;2023-10-13T13:01:25;34.10;36.30
3705;DHT22;1868;48.918;9.438;2023-10-13T13:04:00;34.30;37.40
3705;DHT22;1868;48.918;9.438;2023-10-13T13:06:31;33.90;37.40
3705;DHT22;1868;48.918;9.438;2023-10-13T13:09:00;34.60;38.20
3705;DHT22;1868;48.918;9.438;2023-10-13T13:11:29;34.70;37.70
3705;DHT22;1868;48.918;9.438;2023-10-13T13:13:58;33.60;39.10
3705;DHT22;1868;48.918;9.438;2023-10-13T13:16:27;34.60;38.30
3705;DHT22;1868;48.918;9.438;2023-10-13T13:18:58;34.10;39.10
3705;DHT22;1868;48.918;9.438;2023-10-13T13:21:30;34.20;38.00
3705;DHT22;1868;48.918;9.438;2023-10-13T13:24:01;34.50;36.60
3705;DHT22;1868;48.918;9.438;2023-10-13T13:26:32;34.70;37.60
3705;DHT22;1868;48.918;9.438;2023-10-13T13:29:03;33.80;36.90
3705;DHT22;1868;48.918;9.438;2023-10-13T13:31:31;34.30;38.30
3705;DHT22;1868;48.918;9.438;2023-10-13T13:34:02;34.10;37.70
3705;DHT22;1868;48.918;9.438;2023-10-13T13:36:32;33.30;38.80
3705;DHT22;1868;48.918;9.438;2023-10-13T13:39:01;32.90;41.10
3705;DHT22;1868;48.918;9.438;2023-10-13T13:41:31;33.50;40.90
3705;DHT22;1868;48.918;9.438;2023-10-13T13:44:03;34.40;39.80
3705;DHT22;1868;48.918;9.438;2023-10-13T13:46:41;34.90;38.30
3705;DHT22;1868;48.918;9.438;2023-10-13T13:49:12;34.90;38.20
3705;DHT22;1868;48.918;9.438;2023-10-13T13:51:46;35.40;38.30
3705;DHT22;1868;48.918;9.438;2023-10-13T13:54:19;35.40;38.00
3705;DHT22;1868;48.918;9.438;2023-10-13T13:56:48;35.40;37.60
3705;DHT22;1868;48.918;9.438;2023-10-13T13:59:18;35.00;36.60
3705;DHT22;1868;48.918;9.438;2023-10-13T14:01:47;35.20;37.10
3705;DHT22;1868;48.918;9.438;2023-10-13T14:04:16;35.50;40.60
3705;DHT22;1868;48.918;9.438;2023-10-13T14:06:46;35.50;36.80
3705;DHT22;1868;48.918;9.438;2023-10-13T14:09:16;35.40;36.20
3705;DHT22;1868;48.918;9.438;2023-10-13T14:11:59;35.70;36.00
3705;DHT22;1868;48.918;9.438;2023-10-13T14:14:47;36.00;36.30
3705;DHT22;1868;48.918;9.438;2023-10-13T14:17:22;35.90;35.40
3705;DHT22;1868;48.918;9.438;2023-10-13T14:19:56;35.80;36.20
3705;DHT22;1868;48.918;9.438;2023-10-13T14:22:27;35.10;35.70
3705;DHT22;1868;48.918;9.438;2023-10-13T14:24:56;35.20;36.80
3705;DHT22;1868;48.918;9.438;2023-10-13T14:27:36;35.60;35.70
3705;DHT22;1868;48.918;9.438;2023-10-13T14:30:10;35.30;34.80
3705;DHT22;1868;48.918;9.438;2023-10-13T14:32:47;35.70;34.40
3705;DHT22;1868;48.918;9.438;2023-10-13T14:35:16;35.00;34.10
3705;DHT22;1868;48.918;9.438;2023-10-13T14:37:45;34.90;34.50
3705;DHT22;1868;48.918;9.438;2023-10-13T14:40:14;34.90;33.60
3705;DHT22;1868;48.918;9.438;2023-10-13T14:42:43;34.90;34.10
3705;DHT22;1868;48.918;9.438;2023-10-13T14:45:15;35.40;34.70
3705;DHT22;1868;48.918;9.438;2023-10-13T14:47:46;35.60;35.10
3705;DHT22;1868;48.918;9.438;2023-10-13T14:50:16;35.90;34.70
3705;DHT22;1868;48.918;9.438;2023-10-13T14:52:49;35.20;34.40
3705;DHT22;1868;48.918;9.438;2023-10-13T14:55:18;34.60;35.30
3705;DHT22;1868;48.918;9.438;2023-10-13T14:57:49;34.10;35.10
3705;DHT22;1868;48.918;9.438;2023-10-13T15:00:20;33.90;35.00
3705;DHT22;1868;48.918;9.438;2023-10-13T15:02:54;34.00;35.30
3705;DHT22;1868;48.918;9.438;2023-10-13T15:05:23;33.70;35.00
3705;DHT22;1868;48.918;9.438;2023-10-13T15:07:51;33.70;35.40
3705;DHT22;1868;48.918;9.438;2023-10-13T15:10:20;33.40;35.70
3705;DHT22;1868;48.918;9.438;2023-10-13T15:12:52;33.00;35.60
3705;DHT22;1868;48.918;9.438;2023-10-13T15:15:22;32.90;35.90
3705;DHT22;1868;48.918;9.438;2023-10-13T15:17:51;32.70;37.90
3705;DHT22;1868;48.918;9.438;2023-10-13T15:20:20;32.60;36.50
3705;DHT22;1868;48.918;9.438;2023-10-13T15:22:51;32.40;38.00
3705;DHT22;1868;48.918;9.438;2023-10-13T15:25:27;32.20;37.70
3705;DHT22;1868;48.918;9.438;2023-10-13T15:28:08;32.20;37.90
3705;DHT22;1868;48.918;9.438;2023-10-13T15:30:39;31.70;38.80
3705;DHT22;1868;48.918;9.438;2023-10-13T15:33:17;31.50;38.80
3705;DHT22;1868;48.918;9.438;2023-10-13T15:35:47;31.30;39.20
3705;DHT22;1868;48.918;9.438;2023-10-13T15:38:16;31.40;39.70
3705;DHT22;1868;48.918;9.438;2023-10-13T15:40:48;31.00;39.50
3705;DHT22;1868;48.918;9.438;2023-10-13T15:43:22;30.90;39.40
3705;DHT22;1868;48.918;9.438;2023-10-13T15:45:52;30.50;41.20
3705;DHT22;1868;48.918;9.438;2023-10-13T15:48:32;30.10;41.10
3705;DHT22;1868;48.918;9.438;2023-10-13T15:51:03;29.70;41.40
3705;DHT22;1868;48.918;9.438;2023-10-13T15:53:32;29.30;41.80
3705;DHT22;1868;48.918;9.438;2023-10-13T15:56:03;29.00;42.70
3705;DHT22;1868;48.918;9.438;2023-10-13T15:58:34;28.70;43.50
3705;DHT22;1868;48.918;9.438;2023-10-13T16:01:04;28.40;44.00
3705;DHT22;1868;48.918;9.438;2023-10-13T16:03:35;28.20;44.30
3705;DHT22;1868;48.918;9.438;2023-10-13T16:06:05;28.00;45.30
3705;DHT22;1868;48.918;9.438;2023-10-13T16:08:37;27.90;45.60
3705;DHT22;1868;48.918;9.438;2023-10-13T16:11:06;27.60;46.70
3705;DHT22;1868;48.918;9.438;2023-10-13T16:13:41;27.50;46.20
3705;DHT22;1868;48.918;9.438;2023-10-13T16:16:16;27.40;45.20
3705;DHT22;1868;48.918;9.438;2023-10-13T16:18:46;27.20;45.20
3705;DHT22;1868;48.918;9.438;2023-10-13T16:21:16;27.10;45.80
3705;DHT22;1868;48.918;9.438;2023-10-13T16:23:47;27.00;45.30
3705;DHT22;1868;48.918;9.438;2023-10-13T16:26:17;26.90;45.60
3705;DHT22;1868;48.918;9.438;2023-10-13T16:28:48;26.80;46.20
3705;DHT22;1868;48.918;9.438;2023-10-13T16:31:23;26.60;46.40
3705;DHT22;1868;48.918;9.438;2023-10-13T16:33:55;26.50;46.20
3705;DHT22;1868;48.918;9.438;2023-10-13T16:36:26;26.40;46.80
3705;DHT22;1868;48.918;9.438;2023-10-13T16:38:55;26.30;48.20
3705;DHT22;1868;48.918;9.438;2023-10-13T16:41:25;26.10;50.30
3705;DHT22;1868;48.918;9.438;2023-10-13T16:43:56;25.90;52.00
3705;DHT22;1868;48.918;9.438;2023-10-13T16:46:31;25.70;53.10
3705;DHT22;1868;48.918;9.438;2023-10-13T16:49:01;25.50;51.60
3705;DHT22;1868;48.918;9.438;2023-10-13T16:51:29;25.30;51.90
3705;DHT22;1868;48.918;9.438;2023-10-13T16:53:59;25.10;53.50
3705;DHT22;1868;48.918;9.438;2023-10-13T16:56:28;25.00;52.30
3705;DHT22;1868;48.918;9.438;2023-10-13T16:58:58;24.80;53.70
3705;DHT22;1868;48.918;9.438;2023-10-13T17:01:29;24.70;56.90
3705;DHT22;1868;48.918;9.438;2023-10-13T17:03:57;24.50;57.70